Pagrindinis puslapis
METAR-TAF:

METAR-TAF

Oro uostai :

Kosraė, Mikronezija

platuma: 05-21N, ilguma: 162-57E, Aukštis: 3 m

METAR: trūkstamas

Laikas: 16:40 (05:40 UTC)

Prognozė

Ataskaita buvo paskelbta 6 valandos ir 20 minutes, ne 23:20 UTC
Prognozė galioja nuo 17 metu 00 UTC su 17 metu 24 UTC
Vėjas 12 kt iš Vakarų/Šiaurės Vakarų
Matomumas: 10 km
Išsisklaidę debesys ne aukštis 1800 ft
Išsisklaidę debesys ne aukštis 4000 ft
Su prošvaistėmis ne aukštis 14000 ft
Liūtis kaimynystėje
Laikinai
nuo 17 metu 00 UTC su 17 metu 04 UTC
Matomumas: 8.0 km
Su prošvaistėmis ne aukštis 1600 ft
Apsiniaukę ne aukštis 10000 ft
lietus

TAF: PTSA 162320Z 1700/1724 29012KT P6SM VCSH SCT018 SCT040 BKN140 TEMPO 1700/1704 5SM SHRA BKN016 OVC100

Orai ataskaitas ir orų prognozės (METAR, TAF).

turimą stotys yra geltonos ir raudonos taškus žemėlapyje.

Perkelti pele per norėdami pamatyti stoties vardą.

Tada spustelėkite, norėdami matyti oro stebėjimo ir prognozės.

Norėdami pakeisti žemėlapį: spustelėkite ant žalios mygtukų su juodo kryžiaus žemyn,; žalią mygtuką su brūkšneliu, jei norite nutolinti; arba žalių rodyklių gretimoms žemėlapius.


METAR-TAF: